createdAt,value
2019-04-16T00:02:06.859Z,46.80
2019-04-16T00:04:53.699Z,46.87
2019-04-16T00:07:41.100Z,43.07
2019-04-16T00:10:20.314Z,44.30
2019-04-16T00:12:59.341Z,45.33
2019-04-16T00:15:27.969Z,44.93
2019-04-16T00:17:56.111Z,41.00
2019-04-16T00:20:24.366Z,42.63
2019-04-16T00:22:59.565Z,45.63
2019-04-16T00:25:27.109Z,42.83
2019-04-16T00:27:59.531Z,46.37
2019-04-16T00:30:26.071Z,40.97
2019-04-16T00:32:54.355Z,43.67
2019-04-16T00:35:22.789Z,45.97
2019-04-16T00:37:52.331Z,45.60
2019-04-16T00:40:20.625Z,48.43
2019-04-16T00:42:48.878Z,45.20
2019-04-16T00:45:17.195Z,46.27
2019-04-16T00:47:47.931Z,48.37
2019-04-16T00:50:17.240Z,44.00
2019-04-16T00:52:45.725Z,42.13
2019-04-16T00:55:14.586Z,51.43
2019-04-16T00:57:43.065Z,43.50
2019-04-16T01:00:11.150Z,46.20
2019-04-16T01:02:39.094Z,43.90
2019-04-16T01:05:07.492Z,47.87
2019-04-16T01:07:36.091Z,42.07
2019-04-16T01:10:04.589Z,41.93
2019-04-16T01:12:33.166Z,48.00
2019-04-16T01:15:01.580Z,47.07
2019-04-16T01:17:30.135Z,49.33
2019-04-16T01:19:58.322Z,48.90
2019-04-16T01:22:26.495Z,44.93
2019-04-16T01:24:55.120Z,45.73
2019-04-16T01:27:31.348Z,43.23
2019-04-16T01:29:59.635Z,49.03
2019-04-16T01:32:42.707Z,46.53
2019-04-16T01:35:28.244Z,46.73
2019-04-16T01:38:14.629Z,44.07
2019-04-16T01:40:54.322Z,42.80
2019-04-16T01:43:25.476Z,47.47
2019-04-16T01:45:53.704Z,45.30
2019-04-16T01:48:22.322Z,52.80
2019-04-16T01:50:50.982Z,47.27
2019-04-16T01:53:21.110Z,49.93
2019-04-16T01:55:50.158Z,47.67
2019-04-16T01:58:18.704Z,49.37
2019-04-16T02:00:47.373Z,50.40
2019-04-16T02:03:17.742Z,48.43
2019-04-16T02:05:45.609Z,50.10
2019-04-16T02:08:14.409Z,51.13
2019-04-16T02:10:42.545Z,47.73
2019-04-16T02:13:14.542Z,44.87
2019-04-16T02:15:41.639Z,48.37
2019-04-16T02:18:10.238Z,43.80
2019-04-16T02:20:39.659Z,49.27
2019-04-16T02:23:07.955Z,51.73
2019-04-16T02:25:36.481Z,45.50
2019-04-16T02:28:05.335Z,49.33
2019-04-16T02:30:37.672Z,51.17
2019-04-16T02:33:03.739Z,50.33
2019-04-16T02:35:32.042Z,57.43
2019-04-16T02:38:00.408Z,56.70
2019-04-16T02:40:28.981Z,53.33
2019-04-16T02:43:04.187Z,56.40
2019-04-16T02:45:27.294Z,53.23
2019-04-16T02:47:55.467Z,53.60
2019-04-16T02:50:32.113Z,55.37
2019-04-16T02:53:10.541Z,51.10
2019-04-16T02:55:58.118Z,52.33
2019-04-16T02:58:34.043Z,56.70
2019-04-16T03:01:27.602Z,58.07
2019-04-16T03:04:02.747Z,58.83
2019-04-16T03:06:32.006Z,52.63
2019-04-16T03:09:00.945Z,52.70
2019-04-16T03:11:29.225Z,49.03
2019-04-16T03:13:59.309Z,54.43
2019-04-16T03:16:38.037Z,57.33
2019-04-16T03:19:12.590Z,55.23
2019-04-16T03:21:41.191Z,54.97
2019-04-16T03:24:10.087Z,53.87
2019-04-16T03:26:38.361Z,52.57
2019-04-16T03:29:07.062Z,51.83
2019-04-16T03:31:35.353Z,51.93
2019-04-16T03:34:03.917Z,54.80
2019-04-16T03:36:32.201Z,66.80
2019-04-16T03:39:00.082Z,67.83
2019-04-16T03:41:28.303Z,60.87
2019-04-16T03:43:56.655Z,59.90
2019-04-16T03:46:24.611Z,56.27
2019-04-16T03:48:56.155Z,55.60
2019-04-16T03:51:23.041Z,55.97
2019-04-16T03:53:50.950Z,56.67
2019-04-16T03:56:19.261Z,59.57
2019-04-16T03:58:47.467Z,60.27
2019-04-16T04:01:17.768Z,60.00
2019-04-16T04:03:47.072Z,55.10
2019-04-16T04:06:16.359Z,59.80
2019-04-16T04:08:47.929Z,56.57
2019-04-16T04:11:15.028Z,56.07
2019-04-16T04:13:42.946Z,58.23
2019-04-16T04:16:11.707Z,56.60
2019-04-16T04:18:42.913Z,58.47
2019-04-16T04:21:10.413Z,60.20
2019-04-16T04:23:37.935Z,58.10
2019-04-16T04:26:08.896Z,55.63
2019-04-16T04:28:38.235Z,56.80
2019-04-16T04:31:07.054Z,56.50
2019-04-16T04:33:41.829Z,54.70
2019-04-16T04:36:09.316Z,58.73
2019-04-16T04:38:38.385Z,59.63
2019-04-16T04:41:07.135Z,60.70
2019-04-16T04:43:35.470Z,63.60
2019-04-16T04:46:03.781Z,59.53
2019-04-16T04:48:31.810Z,58.57
2019-04-16T04:51:00.337Z,54.97
2019-04-16T04:53:28.310Z,58.73
2019-04-16T04:55:57.261Z,57.77
2019-04-16T04:58:26.395Z,66.33
2019-04-16T05:00:54.757Z,56.33
2019-04-16T05:03:33.922Z,55.70
2019-04-16T05:06:03.247Z,56.87
2019-04-16T05:08:31.700Z,55.87
2019-04-16T05:11:02.760Z,59.67
2019-04-16T05:13:30.014Z,61.60
2019-04-16T05:16:01.579Z,60.33
2019-04-16T05:18:28.007Z,57.73
2019-04-16T05:20:58.001Z,54.80
2019-04-16T05:23:26.306Z,57.30
2019-04-16T05:25:54.575Z,61.10
2019-04-16T05:28:23.191Z,57.20
2019-04-16T05:30:52.176Z,60.13
2019-04-16T05:33:22.827Z,58.83
2019-04-16T05:35:51.600Z,59.80
2019-04-16T05:38:20.456Z,55.50
2019-04-16T05:40:48.863Z,58.23
2019-04-16T05:43:17.475Z,58.73
2019-04-16T05:45:45.414Z,53.40
2019-04-16T05:48:13.533Z,57.87
2019-04-16T05:50:41.917Z,55.67
2019-04-16T05:53:12.803Z,59.83
2019-04-16T05:56:05.795Z,54.73
2019-04-16T05:58:36.166Z,58.07
2019-04-16T06:01:10.427Z,60.53
2019-04-16T06:03:39.755Z,59.43
2019-04-16T06:06:08.516Z,57.10
2019-04-16T06:08:40.717Z,56.77
2019-04-16T06:11:06.715Z,55.53
2019-04-16T06:14:00.406Z,59.33
2019-04-16T06:16:36.572Z,61.37
2019-04-16T06:19:33.049Z,61.43
2019-04-16T06:22:06.187Z,64.27
2019-04-16T06:25:12.339Z,58.27
2019-04-16T06:27:54.226Z,56.93
2019-04-16T06:30:55.171Z,55.83
2019-04-16T06:33:37.711Z,58.33
2019-04-16T06:36:11.884Z,56.03
2019-04-16T06:38:49.723Z,56.30
2019-04-16T06:41:42.048Z,55.10
2019-04-16T06:44:11.205Z,49.70
2019-04-16T06:47:16.851Z,54.03
2019-04-16T06:49:51.200Z,53.47
2019-04-16T06:52:39.505Z,54.67
2019-04-16T06:55:34.985Z,53.80
2019-04-16T06:58:18.268Z,55.23
2019-04-16T07:01:07.169Z,53.20
2019-04-16T07:03:51.227Z,56.03
2019-04-16T07:06:44.263Z,54.00
2019-04-16T07:09:40.508Z,56.10
2019-04-16T07:12:09.907Z,57.87
2019-04-16T07:14:37.809Z,50.83
2019-04-16T07:17:06.520Z,53.57
2019-04-16T07:19:35.157Z,50.40
2019-04-16T07:22:04.046Z,51.50
2019-04-16T07:24:36.799Z,48.90
2019-04-16T07:27:03.163Z,49.70
2019-04-16T07:29:49.988Z,49.03
2019-04-16T07:32:40.863Z,51.40
2019-04-16T07:35:34.666Z,45.77
2019-04-16T07:38:31.568Z,46.33
2019-04-16T07:41:18.282Z,48.57
2019-04-16T07:44:09.729Z,45.70
2019-04-16T07:46:52.601Z,48.17
2019-04-16T07:49:45.437Z,48.50
2019-04-16T07:52:23.651Z,46.73
2019-04-16T07:55:06.179Z,49.57
2019-04-16T07:57:34.386Z,53.33
2019-04-16T08:00:02.310Z,50.90
2019-04-16T08:02:30.907Z,80.83
2019-04-16T08:04:58.920Z,48.47
2019-04-16T08:07:27.091Z,51.13
2019-04-16T08:09:55.328Z,48.10
2019-04-16T08:12:30.279Z,51.77
2019-04-16T08:14:54.845Z,47.60
2019-04-16T08:17:23.045Z,46.07
2019-04-16T08:19:55.334Z,44.30
2019-04-16T08:22:23.062Z,47.23
2019-04-16T08:24:59.753Z,48.37
2019-04-16T08:27:25.843Z,45.70
2019-04-16T08:29:54.042Z,46.57
2019-04-16T08:32:21.951Z,45.13
2019-04-16T08:34:49.591Z,45.57
2019-04-16T08:37:18.244Z,45.77
2019-04-16T08:39:46.925Z,42.90
2019-04-16T08:42:15.733Z,43.23
2019-04-16T08:44:44.976Z,41.17
2019-04-16T08:47:12.984Z,39.87
2019-04-16T08:49:41.306Z,38.70
2019-04-16T08:52:10.210Z,37.10
2019-04-16T08:54:38.977Z,39.33
2019-04-16T08:57:07.626Z,41.83
2019-04-16T08:59:35.482Z,37.37
2019-04-16T09:02:03.790Z,32.80
2019-04-16T09:04:34.661Z,35.00
2019-04-16T09:07:11.488Z,19.50
2019-04-16T09:09:51.414Z,22.13
2019-04-16T09:12:19.323Z,23.07
2019-04-16T09:14:54.937Z,23.57
2019-04-16T09:17:23.716Z,28.63
2019-04-16T09:20:11.191Z,27.23
2019-04-16T09:22:48.833Z,27.97
2019-04-16T09:25:47.763Z,25.87
2019-04-16T09:28:34.577Z,30.97
2019-04-16T09:31:40.723Z,27.10
2019-04-16T09:34:16.127Z,28.13
2019-04-16T09:37:03.001Z,32.83
2019-04-16T09:39:39.302Z,28.30
2019-04-16T09:42:07.936Z,27.07
2019-04-16T09:44:36.050Z,24.00
2019-04-16T09:47:05.379Z,24.33
2019-04-16T09:49:34.433Z,24.13
2019-04-16T09:52:04.124Z,22.90
2019-04-16T09:54:31.922Z,25.00
2019-04-16T09:57:00.705Z,21.97
2019-04-16T09:59:35.943Z,23.23
2019-04-16T10:02:19.175Z,23.60
2019-04-16T10:04:47.445Z,24.70
2019-04-16T10:07:15.984Z,24.07
2019-04-16T10:09:44.723Z,23.13
2019-04-16T10:12:12.674Z,23.93
2019-04-16T10:14:40.936Z,25.27
2019-04-16T10:17:09.141Z,27.27
2019-04-16T10:19:37.421Z,23.23
2019-04-16T10:22:05.708Z,25.87
2019-04-16T10:24:51.996Z,24.80
2019-04-16T10:27:32.335Z,28.03
2019-04-16T10:30:00.531Z,29.03
2019-04-16T10:32:28.927Z,28.10
2019-04-16T10:34:57.561Z,28.90
2019-04-16T10:37:26.150Z,27.23
2019-04-16T10:40:19.262Z,29.97
2019-04-16T10:43:25.063Z,25.97
2019-04-16T10:46:12.506Z,28.35
2019-04-16T10:48:58.708Z,26.02
2019-04-16T10:51:56.005Z,23.02
2019-04-16T10:54:50.030Z,25.92
2019-04-16T10:57:43.875Z,26.93
2019-04-16T11:00:31.512Z,23.90
2019-04-16T11:03:05.897Z,25.48
2019-04-16T11:05:41.885Z,27.35
2019-04-16T11:08:11.205Z,33.45
2019-04-16T11:10:39.931Z,27.30
2019-04-16T11:13:12.655Z,31.05
2019-04-16T11:15:40.536Z,31.05
2019-04-16T11:18:09.464Z,32.78
2019-04-16T11:20:37.822Z,27.67
2019-04-16T11:23:07.612Z,21.95
2019-04-16T11:25:36.008Z,21.25
2019-04-16T11:28:04.776Z,22.50
2019-04-16T11:30:53.207Z,25.95
2019-04-16T11:33:21.455Z,26.73
2019-04-16T11:35:53.028Z,27.62
2019-04-16T11:38:20.141Z,21.67
2019-04-16T11:40:48.685Z,24.17
2019-04-16T11:43:17.377Z,22.00
2019-04-16T11:45:47.526Z,26.20
2019-04-16T11:48:15.746Z,24.50
2019-04-16T11:50:44.222Z,21.03
2019-04-16T11:53:12.548Z,21.17
2019-04-16T11:55:40.472Z,25.87
2019-04-16T11:58:19.467Z,23.87
2019-04-16T12:00:57.406Z,24.33
2019-04-16T12:03:42.664Z,22.63
2019-04-16T12:06:34.104Z,23.13
2019-04-16T12:09:20.109Z,21.07
2019-04-16T12:11:52.104Z,21.03
2019-04-16T12:14:32.455Z,22.03
2019-04-16T12:17:08.845Z,24.87
2019-04-16T12:20:07.984Z,23.60
2019-04-16T12:22:50.295Z,22.73
2019-04-16T12:25:38.121Z,19.10
2019-04-16T12:28:31.859Z,24.20
2019-04-16T12:31:11.241Z,23.40
2019-04-16T12:34:12.759Z,22.13
2019-04-16T12:37:05.276Z,22.63
2019-04-16T12:39:50.945Z,25.40
2019-04-16T12:42:42.225Z,24.50
2019-04-16T12:45:34.170Z,23.87
2019-04-16T12:48:27.773Z,20.30
2019-04-16T12:51:03.280Z,22.30
2019-04-16T12:53:54.047Z,21.77
2019-04-16T12:56:44.357Z,20.30
2019-04-16T12:59:23.164Z,14.40
2019-04-16T13:02:22.769Z,16.90
2019-04-16T13:05:20.883Z,18.73
2019-04-16T13:08:04.469Z,17.63
2019-04-16T13:10:50.531Z,16.03
2019-04-16T13:13:56.777Z,19.70
2019-04-16T13:16:36.807Z,15.10
2019-04-16T13:19:23.248Z,14.83
2019-04-16T13:21:55.198Z,19.47
2019-04-16T13:24:36.274Z,19.57
2019-04-16T13:27:08.881Z,19.23
2019-04-16T13:29:37.382Z,19.67
2019-04-16T13:32:05.958Z,17.77
2019-04-16T13:34:33.910Z,18.33
2019-04-16T13:37:02.498Z,17.27
2019-04-16T13:40:01.613Z,18.87
2019-04-16T13:42:29.783Z,14.70
2019-04-16T13:45:15.732Z,16.43
2019-04-16T13:47:33.277Z,15.40
2019-04-16T13:50:23.206Z,14.77
2019-04-16T13:52:55.987Z,14.17
2019-04-16T13:55:41.674Z,13.87
2019-04-16T13:58:22.254Z,16.47
2019-04-16T14:00:57.419Z,16.27
2019-04-16T14:03:26.007Z,14.87
2019-04-16T14:05:54.418Z,14.70
2019-04-16T14:08:22.989Z,16.57
2019-04-16T14:10:51.692Z,15.30
2019-04-16T14:13:19.849Z,17.07
2019-04-16T14:15:47.732Z,16.57
2019-04-16T14:18:15.923Z,16.17
2019-04-16T14:20:44.189Z,16.37
2019-04-16T14:23:12.879Z,16.83
2019-04-16T14:25:41.283Z,17.97
2019-04-16T14:28:09.156Z,17.47
2019-04-16T14:30:42.836Z,17.00
2019-04-16T14:33:15.409Z,21.47
2019-04-16T14:35:43.708Z,20.10
2019-04-16T14:38:14.770Z,17.33
2019-04-16T14:40:43.351Z,18.47
2019-04-16T14:43:12.754Z,20.67
2019-04-16T14:45:58.349Z,17.40
2019-04-16T14:48:20.192Z,17.27
2019-04-16T14:50:48.756Z,20.07
2019-04-16T14:53:29.543Z,26.53
2019-04-16T14:56:04.487Z,24.50
2019-04-16T14:58:58.702Z,27.40
2019-04-16T15:01:35.703Z,26.10
2019-04-16T15:04:35.829Z,24.03
2019-04-16T15:07:22.034Z,25.03
2019-04-16T15:09:55.575Z,27.17
2019-04-16T15:12:43.539Z,32.77
2019-04-16T15:15:27.449Z,26.80
2019-04-16T15:18:27.071Z,27.33
2019-04-16T15:21:24.718Z,30.03
2019-04-16T15:24:11.422Z,26.33
2019-04-16T15:26:58.133Z,25.73
2019-04-16T15:29:52.541Z,23.83
2019-04-16T15:32:38.287Z,26.33
2019-04-16T15:35:08.215Z,27.73
2019-04-16T15:37:57.891Z,34.13
2019-04-16T15:40:32.333Z,33.93
2019-04-16T15:43:28.525Z,34.10
2019-04-16T15:46:26.389Z,34.43
2019-04-16T15:49:24.464Z,28.40
2019-04-16T15:52:18.331Z,27.93
2019-04-16T15:54:53.499Z,24.83
2019-04-16T15:57:53.644Z,27.50
2019-04-16T16:00:31.508Z,42.00
2019-04-16T16:03:11.804Z,37.30
2019-04-16T16:05:43.525Z,28.67
2019-04-16T16:08:19.322Z,25.03
2019-04-16T16:10:51.683Z,23.67
2019-04-16T16:13:22.719Z,30.63
2019-04-16T16:15:51.788Z,31.23
2019-04-16T16:18:20.141Z,29.00
2019-04-16T16:20:48.817Z,29.17
2019-04-16T16:23:18.855Z,26.53
2019-04-16T16:25:47.452Z,30.13
2019-04-16T16:28:15.803Z,29.67
2019-04-16T16:30:44.095Z,30.47
2019-04-16T16:33:12.062Z,29.23
2019-04-16T16:35:40.673Z,43.57
2019-04-16T16:38:11.103Z,26.77
2019-04-16T16:40:39.625Z,42.53
2019-04-16T16:43:08.772Z,119.77
2019-04-16T16:45:50.135Z,121.70
2019-04-16T16:48:21.905Z,44.00
2019-04-16T16:50:51.599Z,30.90
2019-04-16T16:53:37.224Z,30.80
2019-04-16T16:56:13.555Z,26.63
2019-04-16T16:58:42.966Z,38.20
2019-04-16T17:01:42.486Z,32.10
2019-04-16T17:04:13.540Z,28.47
2019-04-16T17:06:42.030Z,38.20
2019-04-16T17:09:27.170Z,38.50
2019-04-16T17:11:56.368Z,20.63
2019-04-16T17:14:24.967Z,23.67
2019-04-16T17:16:53.816Z,18.03
2019-04-16T17:19:22.804Z,17.20
2019-04-16T17:21:52.601Z,15.23
2019-04-16T17:27:02.445Z,16.30
2019-04-16T17:29:30.319Z,13.63
2019-04-16T17:31:58.603Z,14.13
2019-04-16T17:34:26.883Z,15.97
2019-04-16T17:36:55.462Z,16.50
2019-04-16T17:39:43.823Z,14.67
2019-04-16T17:42:12.455Z,17.30
2019-04-16T17:44:54.066Z,18.67
2019-04-16T17:47:34.902Z,17.93
2019-04-16T17:50:20.910Z,25.60
2019-04-16T17:53:15.752Z,15.20
2019-04-16T17:56:00.593Z,12.33
2019-04-16T17:58:36.045Z,15.60
2019-04-16T18:01:19.163Z,16.83
2019-04-16T18:04:12.179Z,12.90
2019-04-16T18:06:50.425Z,13.43
2019-04-16T18:09:40.706Z,15.30
2019-04-16T18:12:43.563Z,15.00
2019-04-16T18:15:42.477Z,12.37
2019-04-16T18:18:36.467Z,11.90
2019-04-16T18:21:37.566Z,19.77
2019-04-16T18:24:31.517Z,15.87
2019-04-16T18:27:28.335Z,17.07
2019-04-16T18:30:16.177Z,22.73
2019-04-16T18:33:07.506Z,17.67
2019-04-16T18:35:43.766Z,15.20
2019-04-16T18:38:22.263Z,14.37
2019-04-16T18:41:19.808Z,19.97
2019-04-16T18:44:19.702Z,17.13
2019-04-16T18:47:12.975Z,16.80
2019-04-16T18:49:41.460Z,18.07
2019-04-16T18:52:09.863Z,22.43
2019-04-16T18:54:38.334Z,18.03
2019-04-16T18:57:07.043Z,17.30
2019-04-16T18:59:35.617Z,19.27
2019-04-16T19:02:08.767Z,22.87
2019-04-16T19:04:35.943Z,14.90
2019-04-16T19:07:04.927Z,16.43
2019-04-16T19:09:35.497Z,13.40
2019-04-16T19:12:04.090Z,26.90
2019-04-16T19:14:36.311Z,18.10
2019-04-16T19:17:02.873Z,16.27
2019-04-16T19:19:31.476Z,14.60
2019-04-16T19:22:01.077Z,11.80
2019-04-16T19:24:29.670Z,13.97
2019-04-16T19:26:58.442Z,29.47
2019-04-16T19:29:26.847Z,21.03
2019-04-16T19:31:56.894Z,23.23
2019-04-16T19:34:25.348Z,23.63
2019-04-16T19:36:55.934Z,23.13
2019-04-16T19:39:23.238Z,24.67
2019-04-16T19:41:57.499Z,25.40
2019-04-16T19:44:25.670Z,26.40
2019-04-16T19:46:54.395Z,25.97
2019-04-16T19:49:23.242Z,52.23
2019-04-16T19:51:52.024Z,30.03
2019-04-16T19:54:19.649Z,26.93
2019-04-16T19:56:51.116Z,24.80
2019-04-16T19:59:18.858Z,25.73
2019-04-16T20:01:47.232Z,20.23
2019-04-16T20:04:15.952Z,19.33
2019-04-16T20:06:45.358Z,25.80
2019-04-16T20:09:13.495Z,24.23
2019-04-16T20:11:42.999Z,26.77
2019-04-16T20:14:11.258Z,22.67
2019-04-16T20:16:39.149Z,30.50
2019-04-16T20:19:07.349Z,30.63
2019-04-16T20:21:37.647Z,44.83
2019-04-16T20:24:05.409Z,29.93
2019-04-16T20:26:34.083Z,31.30
2019-04-16T20:29:04.479Z,29.30
2019-04-16T20:31:33.104Z,25.40
2019-04-16T20:34:01.679Z,25.60
2019-04-16T20:36:30.014Z,28.93
2019-04-16T20:38:58.401Z,26.67
2019-04-16T20:41:27.102Z,33.83
2019-04-16T20:43:55.886Z,34.70
2019-04-16T20:46:24.167Z,30.23
2019-04-16T20:49:06.738Z,31.93
2019-04-16T20:51:26.301Z,33.93
2019-04-16T20:53:53.097Z,33.20
2019-04-16T20:56:21.638Z,33.67
2019-04-16T20:58:50.734Z,31.07
2019-04-16T21:01:32.890Z,34.77
2019-04-16T21:04:03.797Z,38.83
2019-04-16T21:06:26.083Z,31.63
2019-04-16T21:08:56.883Z,34.80
2019-04-16T21:11:25.309Z,35.53
2019-04-16T21:13:57.443Z,36.83
2019-04-16T21:16:25.780Z,41.73
2019-04-16T21:18:54.024Z,39.57
2019-04-16T21:21:25.012Z,56.47
2019-04-16T21:23:54.198Z,48.07
2019-04-16T21:26:22.908Z,40.87
2019-04-16T21:29:03.218Z,39.23
2019-04-16T21:31:35.751Z,30.43
2019-04-16T21:34:29.495Z,28.77
2019-04-16T21:37:12.764Z,28.60
2019-04-16T21:39:47.299Z,26.90
2019-04-16T21:42:17.460Z,27.20
2019-04-16T21:44:46.719Z,28.20
2019-04-16T21:47:17.469Z,26.37
2019-04-16T21:49:46.430Z,27.37
2019-04-16T21:52:16.249Z,30.30
2019-04-16T21:54:44.844Z,28.17
2019-04-16T21:57:14.336Z,28.23
2019-04-16T21:59:42.623Z,29.97
2019-04-16T22:02:16.740Z,26.93
2019-04-16T22:04:45.497Z,29.80
2019-04-16T22:07:14.503Z,30.70
2019-04-16T22:09:42.780Z,27.90
2019-04-16T22:12:15.183Z,70.20
2019-04-16T22:14:41.189Z,70.67
2019-04-16T22:17:09.935Z,40.63
2019-04-16T22:19:52.945Z,36.93
2019-04-16T22:22:11.653Z,38.63
2019-04-16T22:24:39.558Z,38.43
2019-04-16T22:27:08.600Z,38.00
2019-04-16T22:29:36.575Z,38.00
2019-04-16T22:32:05.915Z,39.57
2019-04-16T22:34:34.465Z,38.57
2019-04-16T22:37:04.287Z,36.53
2019-04-16T22:39:51.192Z,41.27
2019-04-16T22:42:29.850Z,37.93
2019-04-16T22:45:10.513Z,41.07
2019-04-16T22:47:38.362Z,37.77
2019-04-16T22:50:16.349Z,32.40
2019-04-16T22:52:37.878Z,32.03
2019-04-16T22:55:06.792Z,37.67
2019-04-16T22:57:35.285Z,34.17
2019-04-16T23:00:05.410Z,31.80
2019-04-16T23:02:34.013Z,36.20
2019-04-16T23:05:01.523Z,32.87
2019-04-16T23:07:30.076Z,35.53
2019-04-16T23:09:58.706Z,35.87
2019-04-16T23:12:28.127Z,38.50
2019-04-16T23:14:56.077Z,39.00
2019-04-16T23:17:26.060Z,39.03
2019-04-16T23:19:54.671Z,42.50
2019-04-16T23:22:25.134Z,43.80
2019-04-16T23:24:55.350Z,41.20
2019-04-16T23:27:23.832Z,41.30
2019-04-16T23:29:52.382Z,41.20
2019-04-16T23:32:20.923Z,37.30
2019-04-16T23:34:49.073Z,32.50
2019-04-16T23:37:22.996Z,33.83
2019-04-16T23:39:47.573Z,33.57
2019-04-16T23:42:18.801Z,35.53
2019-04-16T23:45:04.186Z,35.77
2019-04-16T23:48:01.107Z,31.93
2019-04-16T23:50:45.239Z,36.20
2019-04-16T23:53:24.078Z,36.67
2019-04-16T23:56:12.156Z,33.87
2019-04-16T23:59:02.563Z,33.40
